• Join FlightAware (Why Join?)
  • Login
  • US Flag 
11:28PM EDT


 

Airport Tracker/Info


-or-


 

Live Flight TrackerFlight Track Log ✈ RPA4892 ✈ 04-Sep-2013 ✈ KEWR - KALB

Flight Track Log - Related Links

Times and Time Zones

All times are in EDT time to prevent confusion due to time zone crossing. See the RPA4892 flight status page for this flight to view local times or setup timezone preferences in your user account.

Time Position Orientation Groundspeed Altitude Reporting Facility
EDT Latitude Longitude Course Direction KTS MPH feet Rate Location/Type
10:15PM 40.6667 -74.1667 207° Southwest 176 203 1,900  Level New York TRACON
10:16PM 40.6167 -74.2000 207° Southwest 200 230 4,900 2,760 Climbing New York TRACON
10:17PM 40.6667 -74.2500 323° Northwest 228 262 7,700 1,500 Climbing New York TRACON
10:18PM 40.7333 -74.2667 349° North 284 327 8,000 120 Climbing New York TRACON
10:19PM 40.8000 -74.2500 11° North 276 318 8,000  Level New York TRACON
10:20PM 40.8833 -74.2167 17° North 279 321 8,100  Climbing New York TRACON
10:21PM 40.9500 -74.2000 11° North 282 325 8,100  Level New York TRACON
10:22PM 41.0167 -74.1500 30° Northeast 295 339 8,100  Level New York TRACON
10:23PM 41.0667 -74.0667 51° Northeast 293 337 8,100  Level New York TRACON
10:24PM 41.1000 -73.9667 66° East 292 336 8,100  Level New York TRACON
10:25PM 41.1333 -73.8667 66° East 297 342 8,100 -60 Level New York TRACON
10:26PM 41.1833 -73.7833 51° Northeast 300 345 8,000  Descending New York TRACON
10:27PM 41.2500 -73.7667 11° North 273 314 8,100 960 Climbing New York TRACON
10:28PM 41.3333 -73.7667 360° North 277 319 10,000 900 Climbing New York TRACON
10:29PM 41.4333 -73.7667 360° North 331 381 10,100  Climbing New York TRACON
10:30PM 41.5167 -73.7667 360° North 325 374 10,100  Level New York TRACON
10:31PM 41.6000 -73.7667 360° North 320 368 10,100 -60 Level New York TRACON
10:31PM 41.6653 -73.7767 353° North 322 371 10,000 -60 Descending Boston Center
10:32PM 41.7569 -73.7786 359° North 322 371 10,000  Level Boston Center
10:33PM 41.8089 -73.7825 357° North 320 368 10,000  Level Boston Center
10:34PM 41.8797 -73.7814 North 323 372 10,000  Level Boston Center
10:34PM 41.9361 -73.7825 359° North 322 371 10,000  Level Boston Center
10:35PM 42.0256 -73.7872 358° North 322 371 10,000  Level Boston Center
10:36PM 42.1028 -73.7861 North 322 371 10,000  Level Boston Center
10:37PM 42.1986 -73.7908 358° North 309 356 10,000 -720 Level Boston Center
10:38PM 42.2672 -73.7925 359° North 285 328 8,600 -1,800 Descending Boston Center
10:39PM 42.3444 -73.7939 359° North 254 292 6,400 -1,920 Descending Boston Center
10:40PM 42.4047 -73.7953 359° North 243 280 4,800 -1,500 Descending Boston Center
10:41PM 42.4839 -73.7969 359° North 243 280 3,400 -1,200 Descending Boston Center
10:42PM 42.5342 -73.7953 North 217 250 2,500 -480 Descending Boston Center
10:43PM 42.5861 -73.7994 357° North 212 244 2,500 -180 Level Boston Center
10:44PM 42.6403 -73.8006 359° North 192 221 2,200 -540 Descending Boston Center
10:45PM 42.6611 -73.8036 354° North 144 166 1,700 -300 Descending Boston Center
10:45PM 42.7006 -73.8075 356° North 192 221 1,900 -600 Climbing Boston Center
10:46PM 42.6964 -73.8044 152° Southeast 124 143 1,100 -1,020 Descending Boston Center
10:47PM 42.7339 -73.8081 356° North 117 135 400 -720 Descending Boston Center